sensor_id;sensor_type;location;lat;lon;timestamp;temperature;humidity
13426;DHT22;6785;57.918;12.530;2023-01-08T00:01:04;6.20;99.90
13426;DHT22;6785;57.918;12.530;2023-01-08T00:03:32;6.20;99.90
13426;DHT22;6785;57.918;12.530;2023-01-08T00:06:02;6.20;99.90
13426;DHT22;6785;57.918;12.530;2023-01-08T00:08:29;6.20;99.90
13426;DHT22;6785;57.918;12.530;2023-01-08T00:10:56;6.20;99.90
13426;DHT22;6785;57.918;12.530;2023-01-08T00:13:23;6.20;99.90
13426;DHT22;6785;57.918;12.530;2023-01-08T00:15:49;6.20;99.90
13426;DHT22;6785;57.918;12.530;2023-01-08T00:18:17;6.20;99.90
13426;DHT22;6785;57.918;12.530;2023-01-08T00:20:45;6.20;99.90
13426;DHT22;6785;57.918;12.530;2023-01-08T00:23:12;6.20;99.90
13426;DHT22;6785;57.918;12.530;2023-01-08T00:25:39;6.20;99.90
13426;DHT22;6785;57.918;12.530;2023-01-08T00:28:05;6.30;99.90
13426;DHT22;6785;57.918;12.530;2023-01-08T00:30:32;6.30;99.90
13426;DHT22;6785;57.918;12.530;2023-01-08T00:32:59;6.30;99.90
13426;DHT22;6785;57.918;12.530;2023-01-08T00:35:27;6.30;99.90
13426;DHT22;6785;57.918;12.530;2023-01-08T00:37:54;6.30;99.90
13426;DHT22;6785;57.918;12.530;2023-01-08T00:40:20;6.30;99.90
13426;DHT22;6785;57.918;12.530;2023-01-08T00:42:47;6.30;99.90
13426;DHT22;6785;57.918;12.530;2023-01-08T00:45:14;6.30;99.90
13426;DHT22;6785;57.918;12.530;2023-01-08T00:47:41;6.30;99.90
13426;DHT22;6785;57.918;12.530;2023-01-08T00:50:08;6.30;99.90
13426;DHT22;6785;57.918;12.530;2023-01-08T00:52:37;6.30;99.90
13426;DHT22;6785;57.918;12.530;2023-01-08T00:55:04;6.40;99.90
13426;DHT22;6785;57.918;12.530;2023-01-08T00:57:33;6.40;99.90
13426;DHT22;6785;57.918;12.530;2023-01-08T00:59:59;6.40;99.90
13426;DHT22;6785;57.918;12.530;2023-01-08T01:02:26;6.50;99.90
13426;DHT22;6785;57.918;12.530;2023-01-08T01:04:53;6.50;99.90
13426;DHT22;6785;57.918;12.530;2023-01-08T01:07:20;6.50;99.90
13426;DHT22;6785;57.918;12.530;2023-01-08T01:09:48;6.50;99.90
13426;DHT22;6785;57.918;12.530;2023-01-08T01:12:14;6.50;99.90
13426;DHT22;6785;57.918;12.530;2023-01-08T01:14:41;6.50;99.90
13426;DHT22;6785;57.918;12.530;2023-01-08T01:17:09;6.50;99.90
13426;DHT22;6785;57.918;12.530;2023-01-08T01:19:36;6.50;99.90
13426;DHT22;6785;57.918;12.530;2023-01-08T01:22:03;6.60;99.90
13426;DHT22;6785;57.918;12.530;2023-01-08T01:24:30;6.60;99.90
13426;DHT22;6785;57.918;12.530;2023-01-08T01:26:58;6.60;99.90
13426;DHT22;6785;57.918;12.530;2023-01-08T01:29:25;6.60;99.90
13426;DHT22;6785;57.918;12.530;2023-01-08T01:31:52;6.60;99.90
13426;DHT22;6785;57.918;12.530;2023-01-08T01:34:18;6.70;99.90
13426;DHT22;6785;57.918;12.530;2023-01-08T01:36:45;6.70;99.90
13426;DHT22;6785;57.918;12.530;2023-01-08T01:39:12;6.70;99.90
13426;DHT22;6785;57.918;12.530;2023-01-08T01:41:40;6.70;99.90
13426;DHT22;6785;57.918;12.530;2023-01-08T01:44:34;6.70;99.90
13426;DHT22;6785;57.918;12.530;2023-01-08T01:47:05;6.70;99.90
13426;DHT22;6785;57.918;12.530;2023-01-08T01:49:35;6.70;99.90
13426;DHT22;6785;57.918;12.530;2023-01-08T01:52:04;6.70;99.90
13426;DHT22;6785;57.918;12.530;2023-01-08T01:54:34;6.70;99.90
13426;DHT22;6785;57.918;12.530;2023-01-08T01:57:01;6.70;99.90
13426;DHT22;6785;57.918;12.530;2023-01-08T01:59:28;6.70;99.90
13426;DHT22;6785;57.918;12.530;2023-01-08T02:01:57;6.70;99.90
13426;DHT22;6785;57.918;12.530;2023-01-08T02:04:24;6.80;99.90
13426;DHT22;6785;57.918;12.530;2023-01-08T02:06:56;6.80;99.90
13426;DHT22;6785;57.918;12.530;2023-01-08T02:09:31;6.80;99.90
13426;DHT22;6785;57.918;12.530;2023-01-08T02:12:10;6.80;99.90
13426;DHT22;6785;57.918;12.530;2023-01-08T02:14:58;6.80;99.90
13426;DHT22;6785;57.918;12.530;2023-01-08T02:17:38;6.80;99.90
13426;DHT22;6785;57.918;12.530;2023-01-08T02:20:18;6.80;99.90
13426;DHT22;6785;57.918;12.530;2023-01-08T02:22:54;6.80;99.90
13426;DHT22;6785;57.918;12.530;2023-01-08T02:25:35;6.80;99.90
13426;DHT22;6785;57.918;12.530;2023-01-08T02:28:09;6.80;99.90
13426;DHT22;6785;57.918;12.530;2023-01-08T02:30:36;6.80;99.90
13426;DHT22;6785;57.918;12.530;2023-01-08T02:33:03;6.80;99.90
13426;DHT22;6785;57.918;12.530;2023-01-08T02:35:36;6.80;99.90
13426;DHT22;6785;57.918;12.530;2023-01-08T02:38:04;6.80;99.90
13426;DHT22;6785;57.918;12.530;2023-01-08T02:40:34;6.90;99.90
13426;DHT22;6785;57.918;12.530;2023-01-08T02:43:08;6.90;99.90
13426;DHT22;6785;57.918;12.530;2023-01-08T02:45:42;6.90;99.90
13426;DHT22;6785;57.918;12.530;2023-01-08T02:48:12;6.90;99.90
13426;DHT22;6785;57.918;12.530;2023-01-08T02:50:43;6.90;99.90
13426;DHT22;6785;57.918;12.530;2023-01-08T02:53:13;6.90;99.90
13426;DHT22;6785;57.918;12.530;2023-01-08T02:55:43;6.90;99.90
13426;DHT22;6785;57.918;12.530;2023-01-08T02:58:13;6.90;99.90
13426;DHT22;6785;57.918;12.530;2023-01-08T03:00:41;6.90;99.90
13426;DHT22;6785;57.918;12.530;2023-01-08T03:03:13;6.90;99.90
13426;DHT22;6785;57.918;12.530;2023-01-08T03:05:44;6.90;99.90
13426;DHT22;6785;57.918;12.530;2023-01-08T03:08:11;6.90;99.90
13426;DHT22;6785;57.918;12.530;2023-01-08T03:10:40;6.90;99.90
13426;DHT22;6785;57.918;12.530;2023-01-08T03:13:13;6.90;99.90
13426;DHT22;6785;57.918;12.530;2023-01-08T03:15:45;6.90;99.90
13426;DHT22;6785;57.918;12.530;2023-01-08T03:18:17;7.00;99.90
13426;DHT22;6785;57.918;12.530;2023-01-08T03:20:46;7.00;99.90
13426;DHT22;6785;57.918;12.530;2023-01-08T03:23:15;7.00;99.90
13426;DHT22;6785;57.918;12.530;2023-01-08T03:25:46;7.00;99.90
13426;DHT22;6785;57.918;12.530;2023-01-08T03:28:18;7.00;99.90
13426;DHT22;6785;57.918;12.530;2023-01-08T03:30:47;7.00;99.90
13426;DHT22;6785;57.918;12.530;2023-01-08T03:33:16;7.00;99.90
13426;DHT22;6785;57.918;12.530;2023-01-08T03:35:47;7.00;99.90
13426;DHT22;6785;57.918;12.530;2023-01-08T03:38:18;7.00;99.90
13426;DHT22;6785;57.918;12.530;2023-01-08T03:40:47;7.00;99.90
13426;DHT22;6785;57.918;12.530;2023-01-08T03:43:18;7.00;99.90
13426;DHT22;6785;57.918;12.530;2023-01-08T03:45:49;7.00;99.90
13426;DHT22;6785;57.918;12.530;2023-01-08T03:48:18;7.10;99.90
13426;DHT22;6785;57.918;12.530;2023-01-08T03:50:45;7.00;99.90
13426;DHT22;6785;57.918;12.530;2023-01-08T03:53:13;7.10;99.90
13426;DHT22;6785;57.918;12.530;2023-01-08T03:55:39;7.00;99.90
13426;DHT22;6785;57.918;12.530;2023-01-08T03:58:06;7.00;99.90
13426;DHT22;6785;57.918;12.530;2023-01-08T04:00:34;7.00;99.90
13426;DHT22;6785;57.918;12.530;2023-01-08T04:03:01;7.00;99.90
13426;DHT22;6785;57.918;12.530;2023-01-08T04:05:28;7.00;99.90
13426;DHT22;6785;57.918;12.530;2023-01-08T04:07:55;7.00;99.90
13426;DHT22;6785;57.918;12.530;2023-01-08T04:10:22;7.00;99.90
13426;DHT22;6785;57.918;12.530;2023-01-08T04:12:49;7.00;99.90
13426;DHT22;6785;57.918;12.530;2023-01-08T04:15:16;7.10;99.90
13426;DHT22;6785;57.918;12.530;2023-01-08T04:17:44;7.10;99.90
13426;DHT22;6785;57.918;12.530;2023-01-08T04:20:11;7.10;99.90
13426;DHT22;6785;57.918;12.530;2023-01-08T04:22:37;7.10;99.90
13426;DHT22;6785;57.918;12.530;2023-01-08T04:25:04;7.00;99.90
13426;DHT22;6785;57.918;12.530;2023-01-08T04:27:31;7.00;99.90
13426;DHT22;6785;57.918;12.530;2023-01-08T04:29:58;7.00;99.90
13426;DHT22;6785;57.918;12.530;2023-01-08T04:32:25;7.00;99.90
13426;DHT22;6785;57.918;12.530;2023-01-08T04:34:53;7.00;99.90
13426;DHT22;6785;57.918;12.530;2023-01-08T04:37:20;7.00;99.90
13426;DHT22;6785;57.918;12.530;2023-01-08T04:39:46;7.00;99.90
13426;DHT22;6785;57.918;12.530;2023-01-08T04:42:13;7.10;99.90
13426;DHT22;6785;57.918;12.530;2023-01-08T04:44:40;7.10;99.90
13426;DHT22;6785;57.918;12.530;2023-01-08T04:47:06;7.10;99.90
13426;DHT22;6785;57.918;12.530;2023-01-08T04:49:33;7.10;99.90
13426;DHT22;6785;57.918;12.530;2023-01-08T04:52:01;7.00;99.90
13426;DHT22;6785;57.918;12.530;2023-01-08T04:54:28;7.00;99.90
13426;DHT22;6785;57.918;12.530;2023-01-08T04:56:55;7.00;99.90
13426;DHT22;6785;57.918;12.530;2023-01-08T04:59:21;7.00;99.90
13426;DHT22;6785;57.918;12.530;2023-01-08T05:01:48;7.00;99.90
13426;DHT22;6785;57.918;12.530;2023-01-08T05:04:15;7.00;99.90
13426;DHT22;6785;57.918;12.530;2023-01-08T05:06:41;7.00;99.90
13426;DHT22;6785;57.918;12.530;2023-01-08T05:09:10;7.00;99.90
13426;DHT22;6785;57.918;12.530;2023-01-08T05:11:37;7.00;99.90
13426;DHT22;6785;57.918;12.530;2023-01-08T05:14:04;7.00;99.90
13426;DHT22;6785;57.918;12.530;2023-01-08T05:16:30;7.00;99.90
13426;DHT22;6785;57.918;12.530;2023-01-08T05:18:57;7.00;99.90
13426;DHT22;6785;57.918;12.530;2023-01-08T05:21:24;7.00;99.90
13426;DHT22;6785;57.918;12.530;2023-01-08T05:23:51;7.00;99.90
13426;DHT22;6785;57.918;12.530;2023-01-08T05:26:19;7.00;99.90
13426;DHT22;6785;57.918;12.530;2023-01-08T05:28:46;7.00;99.90
13426;DHT22;6785;57.918;12.530;2023-01-08T05:31:13;7.00;99.90
13426;DHT22;6785;57.918;12.530;2023-01-08T05:33:39;7.00;99.90
13426;DHT22;6785;57.918;12.530;2023-01-08T05:36:08;7.00;99.90
13426;DHT22;6785;57.918;12.530;2023-01-08T05:38:36;7.00;99.90
13426;DHT22;6785;57.918;12.530;2023-01-08T05:41:03;7.00;99.90
13426;DHT22;6785;57.918;12.530;2023-01-08T05:43:31;7.00;99.90
13426;DHT22;6785;57.918;12.530;2023-01-08T05:45:58;7.00;99.90
13426;DHT22;6785;57.918;12.530;2023-01-08T05:48:25;7.00;99.90
13426;DHT22;6785;57.918;12.530;2023-01-08T05:50:52;7.00;99.90
13426;DHT22;6785;57.918;12.530;2023-01-08T05:53:19;7.00;99.90
13426;DHT22;6785;57.918;12.530;2023-01-08T05:55:45;7.00;99.90
13426;DHT22;6785;57.918;12.530;2023-01-08T05:58:12;7.00;99.90
13426;DHT22;6785;57.918;12.530;2023-01-08T06:00:40;7.00;99.90
13426;DHT22;6785;57.918;12.530;2023-01-08T06:03:07;7.00;99.90
13426;DHT22;6785;57.918;12.530;2023-01-08T06:05:34;6.90;99.90
13426;DHT22;6785;57.918;12.530;2023-01-08T06:08:00;6.90;99.90
13426;DHT22;6785;57.918;12.530;2023-01-08T06:10:27;6.90;99.90
13426;DHT22;6785;57.918;12.530;2023-01-08T06:12:54;6.90;99.90
13426;DHT22;6785;57.918;12.530;2023-01-08T06:15:21;6.90;99.90
13426;DHT22;6785;57.918;12.530;2023-01-08T06:17:49;6.90;99.90
13426;DHT22;6785;57.918;12.530;2023-01-08T06:20:16;7.00;99.90
13426;DHT22;6785;57.918;12.530;2023-01-08T06:22:43;6.90;99.90
13426;DHT22;6785;57.918;12.530;2023-01-08T06:25:09;6.90;99.90
13426;DHT22;6785;57.918;12.530;2023-01-08T06:27:36;6.90;99.90
13426;DHT22;6785;57.918;12.530;2023-01-08T06:30:04;6.90;99.90
13426;DHT22;6785;57.918;12.530;2023-01-08T06:32:31;6.90;99.90
13426;DHT22;6785;57.918;12.530;2023-01-08T06:34:59;6.90;99.90
13426;DHT22;6785;57.918;12.530;2023-01-08T06:37:25;6.90;99.90
13426;DHT22;6785;57.918;12.530;2023-01-08T06:39:52;6.90;99.90
13426;DHT22;6785;57.918;12.530;2023-01-08T06:42:19;6.90;99.90
13426;DHT22;6785;57.918;12.530;2023-01-08T06:44:45;6.90;99.90
13426;DHT22;6785;57.918;12.530;2023-01-08T06:47:12;6.90;99.90
13426;DHT22;6785;57.918;12.530;2023-01-08T06:49:39;6.90;99.90
13426;DHT22;6785;57.918;12.530;2023-01-08T06:52:07;6.90;99.90
13426;DHT22;6785;57.918;12.530;2023-01-08T06:54:34;6.90;99.90
13426;DHT22;6785;57.918;12.530;2023-01-08T06:57:00;6.90;99.90
13426;DHT22;6785;57.918;12.530;2023-01-08T06:59:27;6.90;99.90
13426;DHT22;6785;57.918;12.530;2023-01-08T07:01:54;6.90;99.90
13426;DHT22;6785;57.918;12.530;2023-01-08T07:04:20;6.80;99.90
13426;DHT22;6785;57.918;12.530;2023-01-08T07:06:47;6.80;99.90
13426;DHT22;6785;57.918;12.530;2023-01-08T07:09:15;6.80;99.90
13426;DHT22;6785;57.918;12.530;2023-01-08T07:11:42;6.80;99.90
13426;DHT22;6785;57.918;12.530;2023-01-08T07:14:09;6.80;99.90
13426;DHT22;6785;57.918;12.530;2023-01-08T07:16:36;6.80;99.90
13426;DHT22;6785;57.918;12.530;2023-01-08T07:19:02;6.80;99.90
13426;DHT22;6785;57.918;12.530;2023-01-08T07:21:29;6.80;99.90
13426;DHT22;6785;57.918;12.530;2023-01-08T07:23:56;6.80;99.90
13426;DHT22;6785;57.918;12.530;2023-01-08T07:26:25;6.80;99.90
13426;DHT22;6785;57.918;12.530;2023-01-08T07:28:52;6.80;99.90
13426;DHT22;6785;57.918;12.530;2023-01-08T07:31:19;6.80;99.90
13426;DHT22;6785;57.918;12.530;2023-01-08T07:33:45;6.80;99.90
13426;DHT22;6785;57.918;12.530;2023-01-08T07:36:12;6.80;99.90
13426;DHT22;6785;57.918;12.530;2023-01-08T07:38:40;6.80;99.90
13426;DHT22;6785;57.918;12.530;2023-01-08T07:41:07;6.80;99.90
13426;DHT22;6785;57.918;12.530;2023-01-08T07:43:35;6.80;99.90
13426;DHT22;6785;57.918;12.530;2023-01-08T07:46:02;6.80;99.90
13426;DHT22;6785;57.918;12.530;2023-01-08T07:48:29;6.80;99.90
13426;DHT22;6785;57.918;12.530;2023-01-08T07:51:00;6.80;99.90
13426;DHT22;6785;57.918;12.530;2023-01-08T07:53:26;6.80;99.90
13426;DHT22;6785;57.918;12.530;2023-01-08T07:55:58;6.70;99.90
13426;DHT22;6785;57.918;12.530;2023-01-08T07:58:25;6.80;99.90
13426;DHT22;6785;57.918;12.530;2023-01-08T08:00:53;6.80;99.90
13426;DHT22;6785;57.918;12.530;2023-01-08T08:03:20;6.80;99.90
13426;DHT22;6785;57.918;12.530;2023-01-08T08:05:47;6.80;99.90
13426;DHT22;6785;57.918;12.530;2023-01-08T08:08:14;6.80;99.90
13426;DHT22;6785;57.918;12.530;2023-01-08T08:10:41;6.80;99.90
13426;DHT22;6785;57.918;12.530;2023-01-08T08:13:09;6.80;99.90
13426;DHT22;6785;57.918;12.530;2023-01-08T08:15:37;6.80;99.90
13426;DHT22;6785;57.918;12.530;2023-01-08T08:18:05;6.80;99.90
13426;DHT22;6785;57.918;12.530;2023-01-08T08:20:32;6.80;99.90
13426;DHT22;6785;57.918;12.530;2023-01-08T08:22:59;6.80;99.90
13426;DHT22;6785;57.918;12.530;2023-01-08T08:25:27;6.80;99.90
13426;DHT22;6785;57.918;12.530;2023-01-08T08:27:55;6.80;99.90
13426;DHT22;6785;57.918;12.530;2023-01-08T08:30:23;6.80;99.90
13426;DHT22;6785;57.918;12.530;2023-01-08T08:32:51;6.80;99.90
13426;DHT22;6785;57.918;12.530;2023-01-08T08:35:19;6.80;99.90
13426;DHT22;6785;57.918;12.530;2023-01-08T08:37:46;6.90;99.90
13426;DHT22;6785;57.918;12.530;2023-01-08T08:40:13;6.90;99.90
13426;DHT22;6785;57.918;12.530;2023-01-08T08:42:39;6.90;99.90
13426;DHT22;6785;57.918;12.530;2023-01-08T08:45:07;6.90;99.90
13426;DHT22;6785;57.918;12.530;2023-01-08T08:47:34;6.90;99.90
13426;DHT22;6785;57.918;12.530;2023-01-08T08:50:00;6.90;99.90
13426;DHT22;6785;57.918;12.530;2023-01-08T08:52:30;6.90;99.90
13426;DHT22;6785;57.918;12.530;2023-01-08T08:54:56;6.90;99.90
13426;DHT22;6785;57.918;12.530;2023-01-08T08:57:23;6.90;99.90
13426;DHT22;6785;57.918;12.530;2023-01-08T08:59:50;6.90;99.90
13426;DHT22;6785;57.918;12.530;2023-01-08T09:02:17;6.90;99.90
13426;DHT22;6785;57.918;12.530;2023-01-08T09:04:48;6.90;99.90
13426;DHT22;6785;57.918;12.530;2023-01-08T09:07:16;6.90;99.90
13426;DHT22;6785;57.918;12.530;2023-01-08T09:09:44;6.90;99.90
13426;DHT22;6785;57.918;12.530;2023-01-08T09:12:13;6.90;99.90
13426;DHT22;6785;57.918;12.530;2023-01-08T09:14:41;7.00;99.90
13426;DHT22;6785;57.918;12.530;2023-01-08T09:17:08;7.00;99.90
13426;DHT22;6785;57.918;12.530;2023-01-08T09:19:35;7.00;99.90
13426;DHT22;6785;57.918;12.530;2023-01-08T09:22:03;7.00;99.90
13426;DHT22;6785;57.918;12.530;2023-01-08T09:24:29;7.00;99.90
13426;DHT22;6785;57.918;12.530;2023-01-08T09:26:58;7.00;99.90
13426;DHT22;6785;57.918;12.530;2023-01-08T09:29:25;7.00;99.90
13426;DHT22;6785;57.918;12.530;2023-01-08T09:31:52;7.00;99.90
13426;DHT22;6785;57.918;12.530;2023-01-08T09:34:18;7.00;99.90
13426;DHT22;6785;57.918;12.530;2023-01-08T09:36:45;7.00;99.90
13426;DHT22;6785;57.918;12.530;2023-01-08T09:39:12;7.00;99.90
13426;DHT22;6785;57.918;12.530;2023-01-08T09:41:42;7.00;99.90
13426;DHT22;6785;57.918;12.530;2023-01-08T09:44:17;7.00;99.90
13426;DHT22;6785;57.918;12.530;2023-01-08T09:46:45;7.10;99.90
13426;DHT22;6785;57.918;12.530;2023-01-08T09:49:18;7.10;99.90
13426;DHT22;6785;57.918;12.530;2023-01-08T09:51:46;7.00;99.90
13426;DHT22;6785;57.918;12.530;2023-01-08T09:54:15;7.00;99.90
13426;DHT22;6785;57.918;12.530;2023-01-08T09:56:42;7.00;99.90
13426;DHT22;6785;57.918;12.530;2023-01-08T09:59:12;7.00;99.90
13426;DHT22;6785;57.918;12.530;2023-01-08T10:01:41;7.00;99.90
13426;DHT22;6785;57.918;12.530;2023-01-08T10:04:13;7.00;99.90
13426;DHT22;6785;57.918;12.530;2023-01-08T10:06:42;7.00;99.90
13426;DHT22;6785;57.918;12.530;2023-01-08T10:09:13;7.00;99.90
13426;DHT22;6785;57.918;12.530;2023-01-08T10:11:43;7.10;99.90
13426;DHT22;6785;57.918;12.530;2023-01-08T10:14:19;7.00;99.90
13426;DHT22;6785;57.918;12.530;2023-01-08T10:16:50;7.10;99.90
13426;DHT22;6785;57.918;12.530;2023-01-08T10:19:18;7.10;99.90
13426;DHT22;6785;57.918;12.530;2023-01-08T10:21:44;7.00;99.90
13426;DHT22;6785;57.918;12.530;2023-01-08T10:24:12;7.00;99.90
13426;DHT22;6785;57.918;12.530;2023-01-08T10:26:38;7.00;99.90
13426;DHT22;6785;57.918;12.530;2023-01-08T10:29:08;7.10;99.90
13426;DHT22;6785;57.918;12.530;2023-01-08T10:31:43;7.10;99.90
13426;DHT22;6785;57.918;12.530;2023-01-08T10:34:22;7.10;99.90
13426;DHT22;6785;57.918;12.530;2023-01-08T10:36:52;7.10;99.90
13426;DHT22;6785;57.918;12.530;2023-01-08T10:39:21;7.10;99.90
13426;DHT22;6785;57.918;12.530;2023-01-08T10:41:49;7.10;99.90
13426;DHT22;6785;57.918;12.530;2023-01-08T10:44:19;7.10;99.90
13426;DHT22;6785;57.918;12.530;2023-01-08T10:46:51;7.10;99.90
13426;DHT22;6785;57.918;12.530;2023-01-08T10:49:29;7.20;99.90
13426;DHT22;6785;57.918;12.530;2023-01-08T10:51:58;7.20;99.90
13426;DHT22;6785;57.918;12.530;2023-01-08T10:54:30;7.20;99.90
13426;DHT22;6785;57.918;12.530;2023-01-08T10:56:57;7.20;99.90
13426;DHT22;6785;57.918;12.530;2023-01-08T10:59:24;7.20;99.90
13426;DHT22;6785;57.918;12.530;2023-01-08T11:01:53;7.20;99.90
13426;DHT22;6785;57.918;12.530;2023-01-08T11:04:26;7.20;99.90
13426;DHT22;6785;57.918;12.530;2023-01-08T11:06:54;7.30;99.90
13426;DHT22;6785;57.918;12.530;2023-01-08T11:09:28;7.20;99.90
13426;DHT22;6785;57.918;12.530;2023-01-08T11:11:55;7.20;99.90
13426;DHT22;6785;57.918;12.530;2023-01-08T11:14:24;7.30;99.90
13426;DHT22;6785;57.918;12.530;2023-01-08T11:16:52;7.30;99.90
13426;DHT22;6785;57.918;12.530;2023-01-08T11:19:24;7.20;99.90
13426;DHT22;6785;57.918;12.530;2023-01-08T11:21:56;7.20;99.90
13426;DHT22;6785;57.918;12.530;2023-01-08T11:24:25;7.30;99.90
13426;DHT22;6785;57.918;12.530;2023-01-08T11:26:56;7.30;99.90
13426;DHT22;6785;57.918;12.530;2023-01-08T11:29:30;7.30;99.90
13426;DHT22;6785;57.918;12.530;2023-01-08T11:32:07;7.30;99.90
13426;DHT22;6785;57.918;12.530;2023-01-08T11:34:43;7.30;99.90
13426;DHT22;6785;57.918;12.530;2023-01-08T11:37:18;7.30;99.90
13426;DHT22;6785;57.918;12.530;2023-01-08T11:39:45;7.30;99.90
13426;DHT22;6785;57.918;12.530;2023-01-08T11:42:24;7.30;99.90
13426;DHT22;6785;57.918;12.530;2023-01-08T11:45:09;7.30;99.90
13426;DHT22;6785;57.918;12.530;2023-01-08T11:50:32;7.30;99.90
13426;DHT22;6785;57.918;12.530;2023-01-08T11:53:12;7.30;99.90
13426;DHT22;6785;57.918;12.530;2023-01-08T11:55:51;7.30;99.90
13426;DHT22;6785;57.918;12.530;2023-01-08T11:58:29;7.30;99.90
13426;DHT22;6785;57.918;12.530;2023-01-08T12:01:15;7.20;99.90
13426;DHT22;6785;57.918;12.530;2023-01-08T12:03:46;7.20;99.90
13426;DHT22;6785;57.918;12.530;2023-01-08T12:06:27;7.20;99.90
13426;DHT22;6785;57.918;12.530;2023-01-08T12:09:07;7.20;99.90
13426;DHT22;6785;57.918;12.530;2023-01-08T12:11:39;7.20;99.90
13426;DHT22;6785;57.918;12.530;2023-01-08T12:14:20;7.20;99.90
13426;DHT22;6785;57.918;12.530;2023-01-08T12:16:58;7.20;99.90
13426;DHT22;6785;57.918;12.530;2023-01-08T12:19:46;7.20;99.90
13426;DHT22;6785;57.918;12.530;2023-01-08T12:22:25;7.20;99.90
13426;DHT22;6785;57.918;12.530;2023-01-08T12:25:06;7.20;99.90
13426;DHT22;6785;57.918;12.530;2023-01-08T12:27:42;7.10;99.90
13426;DHT22;6785;57.918;12.530;2023-01-08T12:30:17;7.10;99.90
13426;DHT22;6785;57.918;12.530;2023-01-08T12:32:50;7.10;99.90
13426;DHT22;6785;57.918;12.530;2023-01-08T12:35:23;7.10;99.90
13426;DHT22;6785;57.918;12.530;2023-01-08T12:37:56;7.10;99.90
13426;DHT22;6785;57.918;12.530;2023-01-08T12:40:30;7.10;99.90
13426;DHT22;6785;57.918;12.530;2023-01-08T12:42:59;7.10;99.90
13426;DHT22;6785;57.918;12.530;2023-01-08T12:45:28;7.10;99.90
13426;DHT22;6785;57.918;12.530;2023-01-08T12:47:58;7.20;99.90
13426;DHT22;6785;57.918;12.530;2023-01-08T12:50:55;7.10;99.90
13426;DHT22;6785;57.918;12.530;2023-01-08T12:53:33;7.10;99.90
13426;DHT22;6785;57.918;12.530;2023-01-08T12:56:08;7.10;99.90
13426;DHT22;6785;57.918;12.530;2023-01-08T12:58:49;7.10;99.90
13426;DHT22;6785;57.918;12.530;2023-01-08T13:01:26;7.10;99.90
13426;DHT22;6785;57.918;12.530;2023-01-08T13:03:57;7.10;99.90
13426;DHT22;6785;57.918;12.530;2023-01-08T13:06:24;7.20;99.90
13426;DHT22;6785;57.918;12.530;2023-01-08T13:08:53;7.10;99.90
13426;DHT22;6785;57.918;12.530;2023-01-08T13:11:25;7.10;99.90
13426;DHT22;6785;57.918;12.530;2023-01-08T13:14:03;7.10;99.90
13426;DHT22;6785;57.918;12.530;2023-01-08T13:16:34;7.10;99.90
13426;DHT22;6785;57.918;12.530;2023-01-08T13:19:03;7.10;99.90
13426;DHT22;6785;57.918;12.530;2023-01-08T13:21:35;7.10;99.90
13426;DHT22;6785;57.918;12.530;2023-01-08T13:24:20;7.10;99.90
13426;DHT22;6785;57.918;12.530;2023-01-08T13:26:51;7.10;99.90
13426;DHT22;6785;57.918;12.530;2023-01-08T13:29:25;7.10;99.90
13426;DHT22;6785;57.918;12.530;2023-01-08T13:31:52;7.10;99.90
13426;DHT22;6785;57.918;12.530;2023-01-08T13:34:22;7.10;99.90
13426;DHT22;6785;57.918;12.530;2023-01-08T13:36:59;7.10;99.90
13426;DHT22;6785;57.918;12.530;2023-01-08T13:39:34;7.10;99.90
13426;DHT22;6785;57.918;12.530;2023-01-08T13:42:18;7.10;99.90
13426;DHT22;6785;57.918;12.530;2023-01-08T13:44:48;7.10;99.90
13426;DHT22;6785;57.918;12.530;2023-01-08T13:47:19;7.10;99.90
13426;DHT22;6785;57.918;12.530;2023-01-08T13:49:49;7.10;99.90
13426;DHT22;6785;57.918;12.530;2023-01-08T13:52:30;7.10;99.90
13426;DHT22;6785;57.918;12.530;2023-01-08T13:55:01;7.10;99.90
13426;DHT22;6785;57.918;12.530;2023-01-08T13:57:36;7.00;99.90
13426;DHT22;6785;57.918;12.530;2023-01-08T14:00:05;7.00;99.90
13426;DHT22;6785;57.918;12.530;2023-01-08T14:02:36;7.00;99.90
13426;DHT22;6785;57.918;12.530;2023-01-08T14:05:19;7.00;99.90
13426;DHT22;6785;57.918;12.530;2023-01-08T14:07:46;7.00;99.90
13426;DHT22;6785;57.918;12.530;2023-01-08T14:10:15;7.00;99.90
13426;DHT22;6785;57.918;12.530;2023-01-08T14:12:42;7.00;99.90
13426;DHT22;6785;57.918;12.530;2023-01-08T14:15:22;7.00;99.90
13426;DHT22;6785;57.918;12.530;2023-01-08T14:17:50;7.00;99.90
13426;DHT22;6785;57.918;12.530;2023-01-08T14:20:30;7.00;99.90
13426;DHT22;6785;57.918;12.530;2023-01-08T14:22:58;7.00;99.90
13426;DHT22;6785;57.918;12.530;2023-01-08T14:25:26;7.00;99.90
13426;DHT22;6785;57.918;12.530;2023-01-08T14:27:55;7.00;99.90
13426;DHT22;6785;57.918;12.530;2023-01-08T14:30:23;7.00;99.90
13426;DHT22;6785;57.918;12.530;2023-01-08T14:32:50;7.00;99.90
13426;DHT22;6785;57.918;12.530;2023-01-08T14:35:21;7.00;99.90
13426;DHT22;6785;57.918;12.530;2023-01-08T14:37:49;7.00;99.90
13426;DHT22;6785;57.918;12.530;2023-01-08T14:40:16;7.00;99.90
13426;DHT22;6785;57.918;12.530;2023-01-08T14:42:54;7.00;99.90
13426;DHT22;6785;57.918;12.530;2023-01-08T14:45:23;6.90;99.90
13426;DHT22;6785;57.918;12.530;2023-01-08T14:47:53;7.00;99.90
13426;DHT22;6785;57.918;12.530;2023-01-08T14:50:24;7.00;99.90
13426;DHT22;6785;57.918;12.530;2023-01-08T14:52:52;7.00;99.90
13426;DHT22;6785;57.918;12.530;2023-01-08T14:55:20;7.00;99.90
13426;DHT22;6785;57.918;12.530;2023-01-08T14:57:50;7.00;99.90
13426;DHT22;6785;57.918;12.530;2023-01-08T15:00:21;7.00;99.90
13426;DHT22;6785;57.918;12.530;2023-01-08T15:02:49;6.90;99.90
13426;DHT22;6785;57.918;12.530;2023-01-08T15:05:18;7.00;99.90
13426;DHT22;6785;57.918;12.530;2023-01-08T15:07:58;6.90;99.90
13426;DHT22;6785;57.918;12.530;2023-01-08T15:10:32;6.90;99.90
13426;DHT22;6785;57.918;12.530;2023-01-08T15:12:59;7.00;99.90
13426;DHT22;6785;57.918;12.530;2023-01-08T15:15:30;6.90;99.90
13426;DHT22;6785;57.918;12.530;2023-01-08T15:17:58;6.90;99.90
13426;DHT22;6785;57.918;12.530;2023-01-08T15:20:28;6.90;99.90
13426;DHT22;6785;57.918;12.530;2023-01-08T15:22:56;6.90;99.90
13426;DHT22;6785;57.918;12.530;2023-01-08T15:25:25;6.90;99.90
13426;DHT22;6785;57.918;12.530;2023-01-08T15:27:56;6.90;99.90
13426;DHT22;6785;57.918;12.530;2023-01-08T15:30:26;6.90;99.90
13426;DHT22;6785;57.918;12.530;2023-01-08T15:33:05;6.90;99.90
13426;DHT22;6785;57.918;12.530;2023-01-08T15:35:32;6.90;99.90
13426;DHT22;6785;57.918;12.530;2023-01-08T15:37:59;6.90;99.90
13426;DHT22;6785;57.918;12.530;2023-01-08T15:40:25;6.90;99.90
13426;DHT22;6785;57.918;12.530;2023-01-08T15:42:52;6.90;99.90
13426;DHT22;6785;57.918;12.530;2023-01-08T15:45:37;6.90;99.90
13426;DHT22;6785;57.918;12.530;2023-01-08T15:48:06;6.90;99.90
13426;DHT22;6785;57.918;12.530;2023-01-08T15:50:34;6.90;99.90
13426;DHT22;6785;57.918;12.530;2023-01-08T15:53:04;6.90;99.90
13426;DHT22;6785;57.918;12.530;2023-01-08T15:55:32;6.90;99.90
13426;DHT22;6785;57.918;12.530;2023-01-08T15:57:59;6.90;99.90
13426;DHT22;6785;57.918;12.530;2023-01-08T16:00:26;6.90;99.90
13426;DHT22;6785;57.918;12.530;2023-01-08T16:02:53;6.90;99.90